KMRC/MRC METAR and TAF weather

Enter ICAO airport designator
Station Type Date Time Source
KMRC METAR 2020/07/23 11:20 UTC NOAA

KMRC 231120Z AUTO 00000KT 8SM FEW055 SCT070 23/23 A3010 RMK A01


Station Type Date Time Source
KMRC Decoded METAR 2020/07/23 11:20 UTC NOAA

Columbia / Maury County, TN, United States (KMRC) 35-33N 087-11W
Jul 23, 2020 - 07:20 AM EDT / 2020.07.23 1120 UTC
Wind: Calm:0
Visibility: 8 mile(s):0
Sky conditions: partly cloudy
Temperature: 73 F (23 C)
Dew Point: 73 F (23 C)
Relative Humidity: 100%
Pressure (altimeter): 30.1 in. Hg (1019 hPa)
ob: KMRC 231120Z AUTO 00000KT 8SM FEW055 SCT070 23/23 A3010 RMK A01
cycle: 11

Station Type Date Time Source
KMRC TAF 2009/08/31 19:45 UTC NOAA

METAR KMRC 311945Z AUTO 06008KT 10SM CLR 26/12 A3010
RMK AO1 T02550116 $

Example: see airport list